sensor_id;sensor_type;location;lat;lon;timestamp;pressure;altitude;pressure_sealevel;temperature;humidity
68871;BME280;55906;52.278;6.808;2023-02-22T00:01:11;101500.81;;;9.79;90.85
68871;BME280;55906;52.278;6.808;2023-02-22T00:03:48;101493.00;;;9.81;91.11
68871;BME280;55906;52.278;6.808;2023-02-22T00:06:18;101493.00;;;9.81;90.83
68871;BME280;55906;52.278;6.808;2023-02-22T00:08:47;101499.22;;;9.83;90.94
68871;BME280;55906;52.278;6.808;2023-02-22T00:11:15;101493.13;;;9.84;90.96
68871;BME280;55906;52.278;6.808;2023-02-22T00:13:42;101486.25;;;9.87;90.77
68871;BME280;55906;52.278;6.808;2023-02-22T00:16:12;101491.56;;;9.89;90.81
68871;BME280;55906;52.278;6.808;2023-02-22T00:18:39;101488.88;;;9.87;90.71
68871;BME280;55906;52.278;6.808;2023-02-22T00:21:06;101479.38;;;9.91;90.53
68871;BME280;55906;52.278;6.808;2023-02-22T00:23:35;101476.75;;;9.91;90.78
68871;BME280;55906;52.278;6.808;2023-02-22T00:26:05;101479.38;;;9.91;90.78
68871;BME280;55906;52.278;6.808;2023-02-22T00:28:34;101478.25;;;9.84;90.46
68871;BME280;55906;52.278;6.808;2023-02-22T00:31:01;101479.19;;;9.86;90.58
68871;BME280;55906;52.278;6.808;2023-02-22T00:33:29;101477.47;;;9.87;90.95
68871;BME280;55906;52.278;6.808;2023-02-22T00:35:56;101477.59;;;9.90;90.58
68871;BME280;55906;52.278;6.808;2023-02-22T00:38:23;101473.22;;;9.90;90.54
68871;BME280;55906;52.278;6.808;2023-02-22T00:40:50;101474.19;;;9.92;90.22
68871;BME280;55906;52.278;6.808;2023-02-22T00:43:18;101475.84;;;9.90;90.41
68871;BME280;55906;52.278;6.808;2023-02-22T00:45:44;101466.06;;;9.86;90.34
68871;BME280;55906;52.278;6.808;2023-02-22T00:48:11;101467.06;;;9.90;90.06
68871;BME280;55906;52.278;6.808;2023-02-22T00:50:38;101458.34;;;9.91;89.93
68871;BME280;55906;52.278;6.808;2023-02-22T00:53:05;101460.03;;;9.89;89.89
68871;BME280;55906;52.278;6.808;2023-02-22T00:55:35;101442.34;;;9.85;90.09
68871;BME280;55906;52.278;6.808;2023-02-22T00:58:03;101447.66;;;9.86;90.37
68871;BME280;55906;52.278;6.808;2023-02-22T01:00:34;101445.94;;;9.87;90.22
68871;BME280;55906;52.278;6.808;2023-02-22T01:03:01;101441.47;;;9.84;90.25
68871;BME280;55906;52.278;6.808;2023-02-22T01:05:30;101440.56;;;9.84;90.08
68871;BME280;55906;52.278;6.808;2023-02-22T01:07:59;101440.56;;;9.84;90.07
68871;BME280;55906;52.278;6.808;2023-02-22T01:10:27;101436.97;;;9.82;90.23
68871;BME280;55906;52.278;6.808;2023-02-22T01:12:56;101443.06;;;9.81;90.01
68871;BME280;55906;52.278;6.808;2023-02-22T01:15:25;101436.97;;;9.82;90.12
68871;BME280;55906;52.278;6.808;2023-02-22T01:17:54;101437.75;;;9.79;90.17
68871;BME280;55906;52.278;6.808;2023-02-22T01:20:22;101441.22;;;9.78;89.86
68871;BME280;55906;52.278;6.808;2023-02-22T01:22:51;101431.56;;;9.77;89.50
68871;BME280;55906;52.278;6.808;2023-02-22T01:25:20;101432.50;;;9.79;89.89
68871;BME280;55906;52.278;6.808;2023-02-22T01:27:47;101438.41;;;9.74;89.44
68871;BME280;55906;52.278;6.808;2023-02-22T01:30:16;101439.38;;;9.76;89.03
68871;BME280;55906;52.278;6.808;2023-02-22T01:32:45;101433.00;;;9.69;88.38
68871;BME280;55906;52.278;6.808;2023-02-22T01:35:16;101439.97;;;9.69;88.69
68871;BME280;55906;52.278;6.808;2023-02-22T01:37:44;101439.03;;;9.67;88.61
68871;BME280;55906;52.278;6.808;2023-02-22T01:40:17;101437.34;;;9.69;88.84
68871;BME280;55906;52.278;6.808;2023-02-22T01:42:47;101439.84;;;9.66;88.68
68871;BME280;55906;52.278;6.808;2023-02-22T01:45:49;101431.13;;;9.67;88.25
68871;BME280;55906;52.278;6.808;2023-02-22T01:48:23;101429.22;;;9.62;88.38
68871;BME280;55906;52.278;6.808;2023-02-22T01:51:00;101428.34;;;9.62;88.03
68871;BME280;55906;52.278;6.808;2023-02-22T01:53:30;101427.22;;;9.55;87.59
68871;BME280;55906;52.278;6.808;2023-02-22T01:55:59;101429.13;;;9.59;87.36
68871;BME280;55906;52.278;6.808;2023-02-22T01:58:27;101427.31;;;9.58;87.44
68871;BME280;55906;52.278;6.808;2023-02-22T02:00:55;101425.66;;;9.60;87.14
68871;BME280;55906;52.278;6.808;2023-02-22T02:03:25;101424.63;;;9.57;87.19
68871;BME280;55906;52.278;6.808;2023-02-22T02:05:57;101421.19;;;9.58;87.12
68871;BME280;55906;52.278;6.808;2023-02-22T02:08:32;101420.41;;;9.60;86.74
68871;BME280;55906;52.278;6.808;2023-02-22T02:11:02;101418.50;;;9.56;86.96
68871;BME280;55906;52.278;6.808;2023-02-22T02:13:29;101409.59;;;9.53;87.30
68871;BME280;55906;52.278;6.808;2023-02-22T02:15:56;101400.03;;;9.55;87.25
68871;BME280;55906;52.278;6.808;2023-02-22T02:18:23;101400.72;;;9.49;86.96
68871;BME280;55906;52.278;6.808;2023-02-22T02:21:14;101402.25;;;9.44;85.45
68871;BME280;55906;52.278;6.808;2023-02-22T02:24:09;101401.44;;;9.45;85.68
68871;BME280;55906;52.278;6.808;2023-02-22T02:26:58;101397.38;;;9.53;85.97
68871;BME280;55906;52.278;6.808;2023-02-22T02:36:21;101393.13;;;9.57;86.57
68871;BME280;55906;52.278;6.808;2023-02-22T02:38:54;101402.63;;;9.53;86.31
68871;BME280;55906;52.278;6.808;2023-02-22T02:41:26;101386.56;;;9.46;85.86
68871;BME280;55906;52.278;6.808;2023-02-22T02:43:59;101376.84;;;9.43;86.32
68871;BME280;55906;52.278;6.808;2023-02-22T02:46:33;101374.09;;;9.40;85.43
68871;BME280;55906;52.278;6.808;2023-02-22T02:49:04;101377.56;;;9.39;85.44
68871;BME280;55906;52.278;6.808;2023-02-22T02:51:36;101380.66;;;9.29;85.08
68871;BME280;55906;52.278;6.808;2023-02-22T02:54:05;101375.16;;;9.23;84.95
68871;BME280;55906;52.278;6.808;2023-02-22T02:56:33;101374.09;;;9.18;84.90
68871;BME280;55906;52.278;6.808;2023-02-22T02:59:00;101373.91;;;9.13;84.65
68871;BME280;55906;52.278;6.808;2023-02-22T03:01:45;101369.44;;;9.11;83.83
68871;BME280;55906;52.278;6.808;2023-02-22T03:04:23;101362.25;;;9.07;84.16
68871;BME280;55906;52.278;6.808;2023-02-22T03:10:11;101356.16;;;9.08;84.30
68871;BME280;55906;52.278;6.808;2023-02-22T03:12:46;101355.09;;;9.03;84.21
68871;BME280;55906;52.278;6.808;2023-02-22T03:15:21;101338.50;;;9.04;84.23
68871;BME280;55906;52.278;6.808;2023-02-22T03:18:01;101345.34;;;9.00;84.25
68871;BME280;55906;52.278;6.808;2023-02-22T03:20:38;101342.78;;;9.02;84.37
68871;BME280;55906;52.278;6.808;2023-02-22T03:23:10;101341.91;;;9.01;84.51
68871;BME280;55906;52.278;6.808;2023-02-22T03:25:44;101342.44;;;8.92;84.45
68871;BME280;55906;52.278;6.808;2023-02-22T03:28:16;101338.97;;;8.93;84.95
68871;BME280;55906;52.278;6.808;2023-02-22T03:30:48;101333.72;;;8.93;84.87
68871;BME280;55906;52.278;6.808;2023-02-22T03:33:18;101339.56;;;8.86;85.07
68871;BME280;55906;52.278;6.808;2023-02-22T03:35:55;101327.94;;;8.80;85.27
68871;BME280;55906;52.278;6.808;2023-02-22T03:38:27;101330.69;;;8.83;84.80
68871;BME280;55906;52.278;6.808;2023-02-22T03:40:58;101327.88;;;8.78;84.85
68871;BME280;55906;52.278;6.808;2023-02-22T03:43:28;101326.91;;;8.76;85.26
68871;BME280;55906;52.278;6.808;2023-02-22T03:45:57;101322.19;;;8.68;85.71
68871;BME280;55906;52.278;6.808;2023-02-22T03:48:31;101317.78;;;8.66;85.69
68871;BME280;55906;52.278;6.808;2023-02-22T03:51:01;101317.91;;;8.70;85.62
68871;BME280;55906;52.278;6.808;2023-02-22T03:53:31;101315.22;;;8.68;85.97
68871;BME280;55906;52.278;6.808;2023-02-22T03:56:01;101321.16;;;8.64;86.04
68871;BME280;55906;52.278;6.808;2023-02-22T03:58:33;101315.81;;;8.61;86.12
68871;BME280;55906;52.278;6.808;2023-02-22T04:01:02;101320.41;;;8.66;86.10
68871;BME280;55906;52.278;6.808;2023-02-22T04:03:29;101314.97;;;8.62;86.31
68871;BME280;55906;52.278;6.808;2023-02-22T04:05:55;101307.03;;;8.60;86.24
68871;BME280;55906;52.278;6.808;2023-02-22T04:08:22;101311.38;;;8.60;86.27
68871;BME280;55906;52.278;6.808;2023-02-22T04:10:50;101316.56;;;8.58;86.13
68871;BME280;55906;52.278;6.808;2023-02-22T04:13:17;101309.34;;;8.53;86.75
68871;BME280;55906;52.278;6.808;2023-02-22T04:15:43;101311.84;;;8.50;86.92
68871;BME280;55906;52.278;6.808;2023-02-22T04:18:11;101315.09;;;8.44;87.18
68871;BME280;55906;52.278;6.808;2023-02-22T04:20:38;101303.59;;;8.41;87.20
68871;BME280;55906;52.278;6.808;2023-02-22T04:23:05;101300.78;;;8.36;87.42
68871;BME280;55906;52.278;6.808;2023-02-22T04:25:31;101297.03;;;8.31;87.82
68871;BME280;55906;52.278;6.808;2023-02-22T04:27:59;101305.75;;;8.30;87.98
68871;BME280;55906;52.278;6.808;2023-02-22T04:30:26;101305.56;;;8.25;87.34
68871;BME280;55906;52.278;6.808;2023-02-22T04:32:54;101291.47;;;8.23;88.33
68871;BME280;55906;52.278;6.808;2023-02-22T04:35:21;101300.63;;;8.12;89.18
68871;BME280;55906;52.278;6.808;2023-02-22T04:37:48;101303.38;;;8.15;89.30
68871;BME280;55906;52.278;6.808;2023-02-22T04:40:15;101302.41;;;8.13;89.50
68871;BME280;55906;52.278;6.808;2023-02-22T04:42:42;101300.56;;;8.11;89.19
68871;BME280;55906;52.278;6.808;2023-02-22T04:45:10;101298.69;;;8.08;89.37
68871;BME280;55906;52.278;6.808;2023-02-22T04:47:37;101296.97;;;8.09;89.52
68871;BME280;55906;52.278;6.808;2023-02-22T04:50:05;101304.00;;;8.10;90.18
68871;BME280;55906;52.278;6.808;2023-02-22T04:52:32;101297.16;;;8.13;90.00
68871;BME280;55906;52.278;6.808;2023-02-22T04:54:58;101286.81;;;8.16;89.59
68871;BME280;55906;52.278;6.808;2023-02-22T04:57:25;101294.41;;;8.10;89.89
68871;BME280;55906;52.278;6.808;2023-02-22T04:59:52;101292.06;;;8.16;89.96
68871;BME280;55906;52.278;6.808;2023-02-22T05:02:20;101286.69;;;8.13;90.49
68871;BME280;55906;52.278;6.808;2023-02-22T05:04:47;101290.28;;;8.15;90.27
68871;BME280;55906;52.278;6.808;2023-02-22T05:07:14;101281.91;;;8.24;89.61
68871;BME280;55906;52.278;6.808;2023-02-22T05:09:40;101279.16;;;8.21;90.20
68871;BME280;55906;52.278;6.808;2023-02-22T05:12:07;101282.09;;;8.28;89.80
68871;BME280;55906;52.278;6.808;2023-02-22T05:14:34;101276.09;;;8.31;89.74
68871;BME280;55906;52.278;6.808;2023-02-22T05:17:01;101277.81;;;8.30;89.79
68871;BME280;55906;52.278;6.808;2023-02-22T05:19:30;101274.34;;;8.31;89.45
68871;BME280;55906;52.278;6.808;2023-02-22T05:21:56;101277.97;;;8.33;89.65
68871;BME280;55906;52.278;6.808;2023-02-22T05:24:23;101282.97;;;8.29;90.14
68871;BME280;55906;52.278;6.808;2023-02-22T05:26:50;101284.72;;;8.28;89.92
68871;BME280;55906;52.278;6.808;2023-02-22T05:29:18;101282.22;;;8.31;90.23
68871;BME280;55906;52.278;6.808;2023-02-22T05:31:45;101278.91;;;8.36;89.89
68871;BME280;55906;52.278;6.808;2023-02-22T05:34:11;101278.22;;;8.40;89.70
68871;BME280;55906;52.278;6.808;2023-02-22T05:36:40;101275.19;;;8.30;89.99
68871;BME280;55906;52.278;6.808;2023-02-22T05:39:06;101273.47;;;8.31;89.70
68871;BME280;55906;52.278;6.808;2023-02-22T05:41:33;101280.31;;;8.27;90.29
68871;BME280;55906;52.278;6.808;2023-02-22T05:43:59;101266.38;;;8.28;89.99
68871;BME280;55906;52.278;6.808;2023-02-22T05:46:27;101250.63;;;8.28;89.90
68871;BME280;55906;52.278;6.808;2023-02-22T05:48:54;101254.16;;;8.29;90.13
68871;BME280;55906;52.278;6.808;2023-02-22T05:51:21;101256.00;;;8.31;90.27
68871;BME280;55906;52.278;6.808;2023-02-22T05:53:49;101248.25;;;8.33;90.26
68871;BME280;55906;52.278;6.808;2023-02-22T05:56:20;101240.84;;;8.24;90.90
68871;BME280;55906;52.278;6.808;2023-02-22T05:58:47;101234.91;;;8.28;90.14
68871;BME280;55906;52.278;6.808;2023-02-22T06:01:14;101236.69;;;8.29;90.34
68871;BME280;55906;52.278;6.808;2023-02-22T06:03:41;101251.34;;;8.24;91.44
68871;BME280;55906;52.278;6.808;2023-02-22T06:06:07;101246.22;;;8.27;90.65
68871;BME280;55906;52.278;6.808;2023-02-22T06:08:34;101244.38;;;8.25;91.33
68871;BME280;55906;52.278;6.808;2023-02-22T06:11:03;101244.84;;;8.36;91.08
68871;BME280;55906;52.278;6.808;2023-02-22T06:13:29;101238.66;;;8.33;90.88
68871;BME280;55906;52.278;6.808;2023-02-22T06:15:56;101249.25;;;8.37;91.02
68871;BME280;55906;52.278;6.808;2023-02-22T06:18:23;101245.03;;;8.40;90.58
68871;BME280;55906;52.278;6.808;2023-02-22T06:20:51;101250.22;;;8.39;90.85
68871;BME280;55906;52.278;6.808;2023-02-22T06:23:18;101250.47;;;8.45;90.50
68871;BME280;55906;52.278;6.808;2023-02-22T06:25:44;101247.00;;;8.46;90.61
68871;BME280;55906;52.278;6.808;2023-02-22T06:28:13;101234.66;;;8.43;90.86
68871;BME280;55906;52.278;6.808;2023-02-22T06:30:40;101238.25;;;8.45;90.63
68871;BME280;55906;52.278;6.808;2023-02-22T06:33:07;101233.91;;;8.46;91.02
68871;BME280;55906;52.278;6.808;2023-02-22T06:35:33;101237.59;;;8.51;90.85
68871;BME280;55906;52.278;6.808;2023-02-22T06:38:00;101237.59;;;8.51;90.86
68871;BME280;55906;52.278;6.808;2023-02-22T06:40:27;101236.59;;;8.47;91.12
68871;BME280;55906;52.278;6.808;2023-02-22T06:42:54;101233.66;;;8.40;91.59
68871;BME280;55906;52.278;6.808;2023-02-22T06:45:23;101234.59;;;8.42;92.01
68871;BME280;55906;52.278;6.808;2023-02-22T06:47:49;101234.53;;;8.40;92.15
68871;BME280;55906;52.278;6.808;2023-02-22T06:50:18;101234.41;;;8.37;92.76
68871;BME280;55906;52.278;6.808;2023-02-22T06:52:45;101233.59;;;8.38;92.63
68871;BME280;55906;52.278;6.808;2023-02-22T06:55:16;101233.72;;;8.41;92.20
68871;BME280;55906;52.278;6.808;2023-02-22T06:57:43;101235.44;;;8.41;92.63
68871;BME280;55906;52.278;6.808;2023-02-22T07:00:10;101239.59;;;8.36;92.54
68871;BME280;55906;52.278;6.808;2023-02-22T07:02:38;101245.53;;;8.31;92.80
68871;BME280;55906;52.278;6.808;2023-02-22T07:05:05;101233.25;;;8.30;92.65
68871;BME280;55906;52.278;6.808;2023-02-22T07:07:32;101239.00;;;8.22;92.95
68871;BME280;55906;52.278;6.808;2023-02-22T07:09:58;101235.38;;;8.18;93.38
68871;BME280;55906;52.278;6.808;2023-02-22T07:12:26;101235.13;;;8.12;93.61
68871;BME280;55906;52.278;6.808;2023-02-22T07:14:53;101224.50;;;8.09;94.14
68871;BME280;55906;52.278;6.808;2023-02-22T07:17:20;101231.59;;;8.12;94.34
68871;BME280;55906;52.278;6.808;2023-02-22T07:19:48;101224.56;;;8.11;94.38
68871;BME280;55906;52.278;6.808;2023-02-22T07:22:15;101216.91;;;8.15;94.08
68871;BME280;55906;52.278;6.808;2023-02-22T07:24:42;101217.78;;;8.16;94.35
68871;BME280;55906;52.278;6.808;2023-02-22T07:27:08;101221.50;;;8.21;93.93
68871;BME280;55906;52.278;6.808;2023-02-22T07:29:35;101221.69;;;8.25;93.49
68871;BME280;55906;52.278;6.808;2023-02-22T07:32:02;101220.03;;;8.27;93.59
68871;BME280;55906;52.278;6.808;2023-02-22T07:34:29;101220.59;;;8.20;93.81
68871;BME280;55906;52.278;6.808;2023-02-22T07:36:57;101219.06;;;8.25;93.78
68871;BME280;55906;52.278;6.808;2023-02-22T07:39:24;101219.06;;;8.25;94.34
68871;BME280;55906;52.278;6.808;2023-02-22T07:41:51;101220.84;;;8.26;93.97
68871;BME280;55906;52.278;6.808;2023-02-22T07:44:18;101223.53;;;8.28;93.96
68871;BME280;55906;52.278;6.808;2023-02-22T07:46:45;101229.53;;;8.25;94.25
68871;BME280;55906;52.278;6.808;2023-02-22T07:49:13;101229.53;;;8.25;94.38
68871;BME280;55906;52.278;6.808;2023-02-22T07:51:40;101227.75;;;8.24;93.96
68871;BME280;55906;52.278;6.808;2023-02-22T07:54:08;101234.91;;;8.28;94.15
68871;BME280;55906;52.278;6.808;2023-02-22T07:56:34;101231.47;;;8.29;93.52
68871;BME280;55906;52.278;6.808;2023-02-22T07:59:01;101221.69;;;8.25;93.99
68871;BME280;55906;52.278;6.808;2023-02-22T08:01:28;101232.50;;;8.33;93.77
68871;BME280;55906;52.278;6.808;2023-02-22T08:03:56;101219.31;;;8.31;94.03
68871;BME280;55906;52.278;6.808;2023-02-22T08:06:22;101224.72;;;8.34;93.92
68871;BME280;55906;52.278;6.808;2023-02-22T08:08:52;101217.69;;;8.33;93.38
68871;BME280;55906;52.278;6.808;2023-02-22T08:11:20;101223.94;;;8.37;93.85
68871;BME280;55906;52.278;6.808;2023-02-22T08:13:47;101219.41;;;8.33;93.61
68871;BME280;55906;52.278;6.808;2023-02-22T08:16:13;101221.38;;;8.39;93.50
68871;BME280;55906;52.278;6.808;2023-02-22T08:18:40;101216.06;;;8.37;93.48
68871;BME280;55906;52.278;6.808;2023-02-22T08:21:07;101213.88;;;8.48;93.37
68871;BME280;55906;52.278;6.808;2023-02-22T08:23:33;101198.16;;;8.48;93.42
68871;BME280;55906;52.278;6.808;2023-02-22T08:26:04;101204.22;;;8.47;92.73
68871;BME280;55906;52.278;6.808;2023-02-22T08:28:32;101198.16;;;8.48;92.72
68871;BME280;55906;52.278;6.808;2023-02-22T08:30:59;101196.59;;;8.53;92.49
68871;BME280;55906;52.278;6.808;2023-02-22T08:33:25;101200.00;;;8.50;92.04
68871;BME280;55906;52.278;6.808;2023-02-22T08:35:52;101200.06;;;8.52;92.56
68871;BME280;55906;52.278;6.808;2023-02-22T08:38:20;101196.66;;;8.54;92.55
68871;BME280;55906;52.278;6.808;2023-02-22T08:40:48;101203.75;;;8.57;91.89
68871;BME280;55906;52.278;6.808;2023-02-22T08:43:15;101195.13;;;8.59;91.63
68871;BME280;55906;52.278;6.808;2023-02-22T08:45:43;101194.09;;;8.56;91.62
68871;BME280;55906;52.278;6.808;2023-02-22T08:48:10;101203.75;;;8.57;91.63
68871;BME280;55906;52.278;6.808;2023-02-22T08:50:38;101197.69;;;8.58;91.56
68871;BME280;55906;52.278;6.808;2023-02-22T08:53:07;101199.63;;;8.63;91.33
68871;BME280;55906;52.278;6.808;2023-02-22T08:55:35;101203.16;;;8.64;91.69
68871;BME280;55906;52.278;6.808;2023-02-22T08:58:03;101201.50;;;8.66;91.04
68871;BME280;55906;52.278;6.808;2023-02-22T09:00:34;101207.09;;;8.75;90.99
68871;BME280;55906;52.278;6.808;2023-02-22T09:03:03;101200.28;;;8.80;90.95
68871;BME280;55906;52.278;6.808;2023-02-22T09:05:31;101208.09;;;8.79;90.94
68871;BME280;55906;52.278;6.808;2023-02-22T09:07:57;101202.84;;;8.79;90.59
68871;BME280;55906;52.278;6.808;2023-02-22T09:10:26;101209.94;;;8.81;90.15
68871;BME280;55906;52.278;6.808;2023-02-22T09:12:53;101207.63;;;8.89;90.73
68871;BME280;55906;52.278;6.808;2023-02-22T09:15:21;101207.66;;;8.90;90.82
68871;BME280;55906;52.278;6.808;2023-02-22T09:17:48;101206.13;;;8.95;90.38
68871;BME280;55906;52.278;6.808;2023-02-22T09:20:17;101213.22;;;8.98;90.01
68871;BME280;55906;52.278;6.808;2023-02-22T09:22:45;101211.00;;;8.86;89.23
68871;BME280;55906;52.278;6.808;2023-02-22T09:25:13;101209.00;;;8.79;89.36
68871;BME280;55906;52.278;6.808;2023-02-22T09:27:40;101198.50;;;8.79;89.27
68871;BME280;55906;52.278;6.808;2023-02-22T09:30:10;101191.59;;;8.81;89.36
68871;BME280;55906;52.278;6.808;2023-02-22T09:32:41;101193.50;;;8.85;88.88
68871;BME280;55906;52.278;6.808;2023-02-22T09:35:07;101190.56;;;8.78;89.11
68871;BME280;55906;52.278;6.808;2023-02-22T09:37:35;101202.56;;;8.71;89.21
68871;BME280;55906;52.278;6.808;2023-02-22T09:40:02;101199.16;;;8.74;89.39
68871;BME280;55906;52.278;6.808;2023-02-22T09:42:39;101200.41;;;8.83;89.01
68871;BME280;55906;52.278;6.808;2023-02-22T09:45:14;101197.84;;;8.85;88.49
68871;BME280;55906;52.278;6.808;2023-02-22T09:47:48;101190.19;;;8.91;88.77
68871;BME280;55906;52.278;6.808;2023-02-22T09:50:17;101184.91;;;8.89;88.57
68871;BME280;55906;52.278;6.808;2023-02-22T09:52:53;101174.63;;;8.95;88.18
68871;BME280;55906;52.278;6.808;2023-02-22T09:55:28;101170.38;;;8.99;87.94
68871;BME280;55906;52.278;6.808;2023-02-22T09:58:01;101172.28;;;9.03;88.04
68871;BME280;55906;52.278;6.808;2023-02-22T10:00:30;101168.34;;;9.14;87.16
68871;BME280;55906;52.278;6.808;2023-02-22T10:03:11;101168.69;;;9.23;86.31
68871;BME280;55906;52.278;6.808;2023-02-22T10:05:46;101167.34;;;9.35;86.30
68871;BME280;55906;52.278;6.808;2023-02-22T10:08:17;101160.84;;;9.49;85.67
68871;BME280;55906;52.278;6.808;2023-02-22T10:10:46;101167.56;;;9.66;85.50
68871;BME280;55906;52.278;6.808;2023-02-22T10:13:24;101162.63;;;9.75;84.84
68871;BME280;55906;52.278;6.808;2023-02-22T10:15:57;101166.09;;;10.01;83.52
68871;BME280;55906;52.278;6.808;2023-02-22T10:18:53;101160.94;;;10.30;82.66
68871;BME280;55906;52.278;6.808;2023-02-22T10:21:45;101158.75;;;10.43;81.54
68871;BME280;55906;52.278;6.808;2023-02-22T10:24:28;101156.22;;;10.75;80.47
68871;BME280;55906;52.278;6.808;2023-02-22T10:27:03;101154.72;;;10.84;77.95
68871;BME280;55906;52.278;6.808;2023-02-22T10:29:35;101159.47;;;10.96;78.13
68871;BME280;55906;52.278;6.808;2023-02-22T10:32:04;101152.94;;;11.13;78.72
68871;BME280;55906;52.278;6.808;2023-02-22T10:34:37;101152.72;;;11.37;76.70
68871;BME280;55906;52.278;6.808;2023-02-22T10:37:23;101146.72;;;11.43;75.05
68871;BME280;55906;52.278;6.808;2023-02-22T10:39:56;101145.22;;;11.52;74.55
68871;BME280;55906;52.278;6.808;2023-02-22T10:42:26;101139.41;;;11.66;75.77
68871;BME280;55906;52.278;6.808;2023-02-22T10:44:53;101147.78;;;11.81;75.56
68871;BME280;55906;52.278;6.808;2023-02-22T10:47:20;101139.56;;;11.70;72.92
68871;BME280;55906;52.278;6.808;2023-02-22T10:49:50;101137.63;;;11.65;72.97
68871;BME280;55906;52.278;6.808;2023-02-22T10:52:23;101142.34;;;11.76;72.54
68871;BME280;55906;52.278;6.808;2023-02-22T10:54:55;101138.16;;;11.83;71.63
68871;BME280;55906;52.278;6.808;2023-02-22T10:57:24;101135.09;;;12.01;71.90
68871;BME280;55906;52.278;6.808;2023-02-22T10:59:52;101139.72;;;12.11;72.24
68871;BME280;55906;52.278;6.808;2023-02-22T11:02:24;101135.47;;;12.17;71.23
68871;BME280;55906;52.278;6.808;2023-02-22T11:04:54;101134.13;;;12.35;69.85
68871;BME280;55906;52.278;6.808;2023-02-22T11:07:24;101133.69;;;12.54;70.21
68871;BME280;55906;52.278;6.808;2023-02-22T11:09:54;101129.41;;;12.59;68.14
68871;BME280;55906;52.278;6.808;2023-02-22T11:12:28;101128.38;;;12.95;68.60
68871;BME280;55906;52.278;6.808;2023-02-22T11:14:56;101105.13;;;13.18;68.99
68871;BME280;55906;52.278;6.808;2023-02-22T11:17:31;101108.13;;;13.37;66.71
68871;BME280;55906;52.278;6.808;2023-02-22T11:19:59;101112.13;;;13.64;68.52
68871;BME280;55906;52.278;6.808;2023-02-22T11:22:27;101118.09;;;13.52;66.78
68871;BME280;55906;52.278;6.808;2023-02-22T11:25:00;101116.56;;;13.65;65.40
68871;BME280;55906;52.278;6.808;2023-02-22T11:27:34;101115.75;;;13.69;64.83
68871;BME280;55906;52.278;6.808;2023-02-22T11:30:19;101109.03;;;13.89;63.20
68871;BME280;55906;52.278;6.808;2023-02-22T11:32:48;101106.50;;;13.97;63.18
68871;BME280;55906;52.278;6.808;2023-02-22T11:35:29;101105.72;;;14.02;62.27
68871;BME280;55906;52.278;6.808;2023-02-22T11:38:09;101101.78;;;14.32;62.08
68871;BME280;55906;52.278;6.808;2023-02-22T11:40:38;101093.22;;;14.50;61.69
68871;BME280;55906;52.278;6.808;2023-02-22T11:43:06;101090.63;;;14.53;62.22
68871;BME280;55906;52.278;6.808;2023-02-22T11:45:37;101089.06;;;14.68;61.58
68871;BME280;55906;52.278;6.808;2023-02-22T11:48:06;101083.81;;;14.71;61.28
68871;BME280;55906;52.278;6.808;2023-02-22T11:50:40;101076.06;;;14.88;60.39
68871;BME280;55906;52.278;6.808;2023-02-22T11:53:25;101080.66;;;15.06;59.85
68871;BME280;55906;52.278;6.808;2023-02-22T11:56:12;101065.81;;;15.20;58.73
68871;BME280;55906;52.278;6.808;2023-02-22T11:58:46;101067.88;;;15.52;59.93
68871;BME280;55906;52.278;6.808;2023-02-22T12:01:22;101061.91;;;15.71;58.47
68871;BME280;55906;52.278;6.808;2023-02-22T12:04:19;101062.03;;;15.86;56.76
68871;BME280;55906;52.278;6.808;2023-02-22T12:06:56;101049.94;;;16.32;57.76
68871;BME280;55906;52.278;6.808;2023-02-22T12:09:33;101048.25;;;16.51;54.38
68871;BME280;55906;52.278;6.808;2023-02-22T12:12:17;101051.00;;;16.67;55.59
68871;BME280;55906;52.278;6.808;2023-02-22T12:14:51;101043.16;;;17.00;56.12
68871;BME280;55906;52.278;6.808;2023-02-22T12:17:38;101047.56;;;16.95;53.55
68871;BME280;55906;52.278;6.808;2023-02-22T12:20:14;101035.19;;;17.03;54.80
68871;BME280;55906;52.278;6.808;2023-02-22T12:22:52;101036.09;;;17.04;52.79
68871;BME280;55906;52.278;6.808;2023-02-22T12:25:21;101036.00;;;16.81;52.83
68871;BME280;55906;52.278;6.808;2023-02-22T12:27:54;101040.41;;;16.80;53.03
68871;BME280;55906;52.278;6.808;2023-02-22T12:30:24;101034.22;;;16.78;53.57
68871;BME280;55906;52.278;6.808;2023-02-22T12:32:54;101031.53;;;16.77;52.83
68871;BME280;55906;52.278;6.808;2023-02-22T12:35:26;101020.94;;;16.84;52.99
68871;BME280;55906;52.278;6.808;2023-02-22T12:38:02;101014.84;;;17.30;52.06
68871;BME280;55906;52.278;6.808;2023-02-22T12:40:33;101022.81;;;17.51;51.36
68871;BME280;55906;52.278;6.808;2023-02-22T12:43:07;101021.06;;;17.76;50.88
68871;BME280;55906;52.278;6.808;2023-02-22T12:45:40;101029.03;;;17.92;50.83
68871;BME280;55906;52.278;6.808;2023-02-22T12:48:21;101029.06;;;17.80;47.95
68871;BME280;55906;52.278;6.808;2023-02-22T12:50:54;101023.72;;;17.92;49.47
68871;BME280;55906;52.278;6.808;2023-02-22T12:53:27;101026.38;;;17.91;48.70
68871;BME280;55906;52.278;6.808;2023-02-22T12:56:01;101023.72;;;17.85;48.67
68871;BME280;55906;52.278;6.808;2023-02-22T12:58:35;101025.44;;;18.09;48.93
68871;BME280;55906;52.278;6.808;2023-02-22T13:01:11;101028.16;;;17.84;49.06
68871;BME280;55906;52.278;6.808;2023-02-22T13:03:42;101023.66;;;18.14;49.39
68871;BME280;55906;52.278;6.808;2023-02-22T13:06:23;101035.16;;;18.40;48.68
68871;BME280;55906;52.278;6.808;2023-02-22T13:09:04;101026.22;;;18.63;48.26
68871;BME280;55906;52.278;6.808;2023-02-22T13:11:37;101025.41;;;18.38;46.62
68871;BME280;55906;52.278;6.808;2023-02-22T13:14:26;101023.63;;;18.31;46.95
68871;BME280;55906;52.278;6.808;2023-02-22T13:17:04;101025.44;;;18.12;47.01
68871;BME280;55906;52.278;6.808;2023-02-22T13:19:42;101025.44;;;18.24;46.87
68871;BME280;55906;52.278;6.808;2023-02-22T13:22:16;101026.31;;;18.18;46.51
68871;BME280;55906;52.278;6.808;2023-02-22T13:24:57;101025.44;;;18.06;46.91